sensor_id;sensor_type;location;lat;lon;timestamp;pressure;altitude;pressure_sealevel;temperature;humidity
60697;BME280;46536;54.376;19.858;2022-12-20T00:01:56;101843.23;;;0.53;77.39
60697;BME280;46536;54.376;19.858;2022-12-20T00:04:25;101843.71;;;0.59;77.25
60697;BME280;46536;54.376;19.858;2022-12-20T00:06:54;101842.62;;;0.64;77.26
60697;BME280;46536;54.376;19.858;2022-12-20T00:09:23;101844.41;;;0.68;77.18
60697;BME280;46536;54.376;19.858;2022-12-20T00:11:52;101845.02;;;0.71;77.29
60697;BME280;46536;54.376;19.858;2022-12-20T00:14:22;101844.70;;;0.72;77.41
60697;BME280;46536;54.376;19.858;2022-12-20T00:16:50;101840.33;;;0.76;77.41
60697;BME280;46536;54.376;19.858;2022-12-20T00:19:19;101841.06;;;0.79;77.47
60697;BME280;46536;54.376;19.858;2022-12-20T00:21:48;101844.23;;;0.82;77.55
60697;BME280;46536;54.376;19.858;2022-12-20T00:24:17;101841.45;;;0.88;77.47
60697;BME280;46536;54.376;19.858;2022-12-20T00:26:53;101837.78;;;0.93;77.54
60697;BME280;46536;54.376;19.858;2022-12-20T00:29:22;101836.52;;;0.98;77.61
60697;BME280;46536;54.376;19.858;2022-12-20T00:31:51;101836.43;;;1.02;77.56
60697;BME280;46536;54.376;19.858;2022-12-20T00:34:20;101833.45;;;1.06;77.70
60697;BME280;46536;54.376;19.858;2022-12-20T00:36:49;101831.13;;;1.09;77.81
60697;BME280;46536;54.376;19.858;2022-12-20T00:39:18;101830.29;;;1.11;77.86
60697;BME280;46536;54.376;19.858;2022-12-20T00:41:47;101826.74;;;1.14;78.02
60697;BME280;46536;54.376;19.858;2022-12-20T00:44:16;101817.41;;;1.18;77.95
60697;BME280;46536;54.376;19.858;2022-12-20T00:46:45;101816.85;;;1.24;77.94
60697;BME280;46536;54.376;19.858;2022-12-20T00:49:14;101816.55;;;1.26;77.99
60697;BME280;46536;54.376;19.858;2022-12-20T00:51:44;101821.90;;;1.28;78.05
60697;BME280;46536;54.376;19.858;2022-12-20T00:54:12;101820.05;;;1.30;78.03
60697;BME280;46536;54.376;19.858;2022-12-20T00:56:41;101820.46;;;1.34;78.10
60697;BME280;46536;54.376;19.858;2022-12-20T00:59:10;101822.58;;;1.38;78.03
60697;BME280;46536;54.376;19.858;2022-12-20T01:01:39;101819.92;;;1.41;78.02
60697;BME280;46536;54.376;19.858;2022-12-20T01:04:09;101825.45;;;1.44;77.81
60697;BME280;46536;54.376;19.858;2022-12-20T01:06:37;101824.32;;;1.47;77.88
60697;BME280;46536;54.376;19.858;2022-12-20T01:09:06;101816.36;;;1.53;77.92
60697;BME280;46536;54.376;19.858;2022-12-20T01:11:36;101811.96;;;1.56;77.75
60697;BME280;46536;54.376;19.858;2022-12-20T01:14:10;101806.38;;;1.59;77.75
60697;BME280;46536;54.376;19.858;2022-12-20T01:16:45;101795.48;;;1.63;77.69
60697;BME280;46536;54.376;19.858;2022-12-20T01:19:16;101797.94;;;1.66;77.68
60697;BME280;46536;54.376;19.858;2022-12-20T01:21:46;101798.48;;;1.69;77.62
60697;BME280;46536;54.376;19.858;2022-12-20T01:24:18;101786.34;;;1.70;77.68
60697;BME280;46536;54.376;19.858;2022-12-20T01:26:47;101782.11;;;1.72;77.54
60697;BME280;46536;54.376;19.858;2022-12-20T01:29:18;101784.48;;;1.72;77.57
60697;BME280;46536;54.376;19.858;2022-12-20T01:31:47;101769.59;;;1.71;77.68
60697;BME280;46536;54.376;19.858;2022-12-20T01:34:16;101765.45;;;1.70;77.70
60697;BME280;46536;54.376;19.858;2022-12-20T01:36:45;101761.20;;;1.72;77.75
60697;BME280;46536;54.376;19.858;2022-12-20T01:39:15;101762.23;;;1.72;77.76
60697;BME280;46536;54.376;19.858;2022-12-20T01:41:45;101770.45;;;1.72;77.79
60697;BME280;46536;54.376;19.858;2022-12-20T01:46:47;101752.89;;;1.75;77.91
60697;BME280;46536;54.376;19.858;2022-12-20T01:51:59;101739.02;;;1.75;77.98
60697;BME280;46536;54.376;19.858;2022-12-20T01:57:05;101735.25;;;1.75;78.00
60697;BME280;46536;54.376;19.858;2022-12-20T01:59:39;101730.99;;;1.76;78.11
60697;BME280;46536;54.376;19.858;2022-12-20T02:02:11;101729.48;;;1.79;78.09
60697;BME280;46536;54.376;19.858;2022-12-20T02:04:40;101717.00;;;1.81;78.22
60697;BME280;46536;54.376;19.858;2022-12-20T02:07:12;101711.86;;;1.81;78.28
60697;BME280;46536;54.376;19.858;2022-12-20T02:09:43;101718.23;;;1.83;78.32
60697;BME280;46536;54.376;19.858;2022-12-20T02:12:43;101719.65;;;1.87;78.28
60697;BME280;46536;54.376;19.858;2022-12-20T02:32:23;101708.77;;;2.04;78.05
60697;BME280;46536;54.376;19.858;2022-12-20T02:34:51;101702.42;;;2.04;78.04
60697;BME280;46536;54.376;19.858;2022-12-20T02:37:20;101696.95;;;2.05;78.18
60697;BME280;46536;54.376;19.858;2022-12-20T02:39:50;101696.63;;;2.06;78.19
60697;BME280;46536;54.376;19.858;2022-12-20T02:42:22;101691.55;;;2.09;78.19
60697;BME280;46536;54.376;19.858;2022-12-20T02:44:56;101683.21;;;2.13;78.22
60697;BME280;46536;54.376;19.858;2022-12-20T02:47:59;101679.63;;;2.15;78.35
60697;BME280;46536;54.376;19.858;2022-12-20T02:50:51;101674.66;;;2.15;78.26
60697;BME280;46536;54.376;19.858;2022-12-20T02:53:22;101667.84;;;2.18;78.37
60697;BME280;46536;54.376;19.858;2022-12-20T02:56:03;101672.81;;;2.18;78.37
60697;BME280;46536;54.376;19.858;2022-12-20T02:59:08;101687.38;;;2.18;78.47
60697;BME280;46536;54.376;19.858;2022-12-20T03:01:48;101695.48;;;2.22;78.42
60697;BME280;46536;54.376;19.858;2022-12-20T03:04:22;101689.52;;;2.25;78.29
60697;BME280;46536;54.376;19.858;2022-12-20T03:06:56;101696.11;;;2.30;78.53
60697;BME280;46536;54.376;19.858;2022-12-20T03:09:26;101691.36;;;2.33;78.33
60697;BME280;46536;54.376;19.858;2022-12-20T03:11:55;101687.63;;;2.37;78.11
60697;BME280;46536;54.376;19.858;2022-12-20T03:14:24;101686.97;;;2.40;78.17
60697;BME280;46536;54.376;19.858;2022-12-20T03:16:55;101688.21;;;2.42;78.06
60697;BME280;46536;54.376;19.858;2022-12-20T03:19:25;101693.23;;;2.46;78.03
60697;BME280;46536;54.376;19.858;2022-12-20T03:21:54;101685.04;;;2.50;78.04
60697;BME280;46536;54.376;19.858;2022-12-20T03:24:24;101678.56;;;2.53;77.98
60697;BME280;46536;54.376;19.858;2022-12-20T03:26:54;101677.21;;;2.55;78.01
60697;BME280;46536;54.376;19.858;2022-12-20T03:29:24;101682.55;;;2.58;77.87
60697;BME280;46536;54.376;19.858;2022-12-20T03:31:53;101681.22;;;2.60;77.77
60697;BME280;46536;54.376;19.858;2022-12-20T03:34:22;101675.75;;;2.61;77.90
60697;BME280;46536;54.376;19.858;2022-12-20T03:36:51;101667.02;;;2.62;78.10
60697;BME280;46536;54.376;19.858;2022-12-20T03:39:20;101662.23;;;2.64;78.13
60697;BME280;46536;54.376;19.858;2022-12-20T03:41:51;101656.59;;;2.65;78.08
60697;BME280;46536;54.376;19.858;2022-12-20T03:44:20;101659.89;;;2.69;78.06
60697;BME280;46536;54.376;19.858;2022-12-20T03:46:49;101662.48;;;2.71;78.09
60697;BME280;46536;54.376;19.858;2022-12-20T03:49:18;101666.42;;;2.71;78.12
60697;BME280;46536;54.376;19.858;2022-12-20T03:51:50;101670.55;;;2.72;78.12
60697;BME280;46536;54.376;19.858;2022-12-20T03:54:19;101674.33;;;2.73;78.18
60697;BME280;46536;54.376;19.858;2022-12-20T03:57:14;101674.06;;;2.79;78.20
60697;BME280;46536;54.376;19.858;2022-12-20T03:59:43;101671.88;;;2.83;78.15
60697;BME280;46536;54.376;19.858;2022-12-20T04:02:14;101665.73;;;2.86;78.17
60697;BME280;46536;54.376;19.858;2022-12-20T04:04:44;101657.48;;;2.86;78.04
60697;BME280;46536;54.376;19.858;2022-12-20T04:07:14;101662.48;;;2.88;78.23
60697;BME280;46536;54.376;19.858;2022-12-20T04:09:46;101654.78;;;2.90;78.12
60697;BME280;46536;54.376;19.858;2022-12-20T04:12:17;101653.76;;;2.91;78.06
60697;BME280;46536;54.376;19.858;2022-12-20T04:14:45;101645.52;;;2.91;78.04
60697;BME280;46536;54.376;19.858;2022-12-20T04:17:15;101651.41;;;2.95;77.99
60697;BME280;46536;54.376;19.858;2022-12-20T04:19:43;101650.40;;;2.96;78.00
60697;BME280;46536;54.376;19.858;2022-12-20T04:22:13;101653.34;;;2.98;77.97
60697;BME280;46536;54.376;19.858;2022-12-20T04:25:04;101654.71;;;2.98;77.93
60697;BME280;46536;54.376;19.858;2022-12-20T04:27:38;101662.60;;;2.99;77.82
60697;BME280;46536;54.376;19.858;2022-12-20T04:30:08;101659.52;;;3.00;77.87
60697;BME280;46536;54.376;19.858;2022-12-20T04:32:37;101650.44;;;3.00;78.00
60697;BME280;46536;54.376;19.858;2022-12-20T04:35:07;101645.64;;;3.01;77.85
60697;BME280;46536;54.376;19.858;2022-12-20T04:37:40;101647.18;;;3.01;77.89
60697;BME280;46536;54.376;19.858;2022-12-20T04:40:10;101646.84;;;3.01;77.97
60697;BME280;46536;54.376;19.858;2022-12-20T04:42:47;101652.85;;;3.02;77.90
60697;BME280;46536;54.376;19.858;2022-12-20T04:45:16;101651.33;;;3.05;77.82
60697;BME280;46536;54.376;19.858;2022-12-20T04:47:45;101648.56;;;3.03;77.86
60697;BME280;46536;54.376;19.858;2022-12-20T04:50:15;101640.16;;;3.03;77.92
60697;BME280;46536;54.376;19.858;2022-12-20T04:52:44;101640.86;;;3.05;77.99
60697;BME280;46536;54.376;19.858;2022-12-20T04:55:39;101626.45;;;3.05;77.83
60697;BME280;46536;54.376;19.858;2022-12-20T04:58:08;101623.02;;;3.06;77.79
60697;BME280;46536;54.376;19.858;2022-12-20T05:00:39;101626.44;;;3.04;77.82
60697;BME280;46536;54.376;19.858;2022-12-20T05:03:21;101621.13;;;3.05;77.76
60697;BME280;46536;54.376;19.858;2022-12-20T05:05:52;101622.49;;;3.05;77.94
60697;BME280;46536;54.376;19.858;2022-12-20T05:08:22;101622.34;;;3.08;77.78
60697;BME280;46536;54.376;19.858;2022-12-20T05:10:52;101615.66;;;3.09;77.80
60697;BME280;46536;54.376;19.858;2022-12-20T05:13:21;101616.84;;;3.06;77.69
60697;BME280;46536;54.376;19.858;2022-12-20T05:15:52;101614.60;;;3.05;77.72
60697;BME280;46536;54.376;19.858;2022-12-20T05:18:26;101611.86;;;3.07;77.86
60697;BME280;46536;54.376;19.858;2022-12-20T05:21:00;101610.36;;;3.11;77.82
60697;BME280;46536;54.376;19.858;2022-12-20T05:23:49;101621.74;;;3.17;77.79
60697;BME280;46536;54.376;19.858;2022-12-20T05:26:52;101620.23;;;3.20;77.71
60697;BME280;46536;54.376;19.858;2022-12-20T05:29:21;101623.15;;;3.22;77.57
60697;BME280;46536;54.376;19.858;2022-12-20T05:31:50;101626.42;;;3.23;77.53
60697;BME280;46536;54.376;19.858;2022-12-20T05:34:19;101631.91;;;3.23;77.52
60697;BME280;46536;54.376;19.858;2022-12-20T05:36:53;101629.85;;;3.22;77.44
60697;BME280;46536;54.376;19.858;2022-12-20T05:39:23;101630.19;;;3.22;77.78
60697;BME280;46536;54.376;19.858;2022-12-20T05:41:54;101619.89;;;3.22;77.50
60697;BME280;46536;54.376;19.858;2022-12-20T05:44:25;101613.89;;;3.23;77.64
60697;BME280;46536;54.376;19.858;2022-12-20T05:46:55;101607.36;;;3.22;77.37
60697;BME280;46536;54.376;19.858;2022-12-20T05:49:28;101609.60;;;3.22;77.61
60697;BME280;46536;54.376;19.858;2022-12-20T05:52:01;101615.58;;;3.19;77.62
60697;BME280;46536;54.376;19.858;2022-12-20T05:54:30;101620.38;;;3.18;77.60
60697;BME280;46536;54.376;19.858;2022-12-20T05:57:18;101629.46;;;3.17;77.77
60697;BME280;46536;54.376;19.858;2022-12-20T05:59:47;101633.41;;;3.15;77.81
60697;BME280;46536;54.376;19.858;2022-12-20T06:02:18;101632.20;;;3.16;77.85
60697;BME280;46536;54.376;19.858;2022-12-20T06:04:50;101634.97;;;3.17;77.80
60697;BME280;46536;54.376;19.858;2022-12-20T06:07:22;101632.58;;;3.18;77.87
60697;BME280;46536;54.376;19.858;2022-12-20T06:09:57;101633.95;;;3.19;77.91
60697;BME280;46536;54.376;19.858;2022-12-20T06:12:52;101635.51;;;3.20;77.97
60697;BME280;46536;54.376;19.858;2022-12-20T06:15:23;101638.59;;;3.19;77.92
60697;BME280;46536;54.376;19.858;2022-12-20T06:17:52;101636.17;;;3.18;77.91
60697;BME280;46536;54.376;19.858;2022-12-20T06:20:22;101630.68;;;3.18;77.99
60697;BME280;46536;54.376;19.858;2022-12-20T06:22:52;101627.59;;;3.19;77.99
60697;BME280;46536;54.376;19.858;2022-12-20T06:25:21;101630.02;;;3.20;78.04
60697;BME280;46536;54.376;19.858;2022-12-20T06:27:50;101633.79;;;3.20;77.99
60697;BME280;46536;54.376;19.858;2022-12-20T06:30:19;101633.10;;;3.21;77.99
60697;BME280;46536;54.376;19.858;2022-12-20T06:33:08;101632.95;;;3.22;78.03
60697;BME280;46536;54.376;19.858;2022-12-20T06:35:37;101636.20;;;3.22;77.92
60697;BME280;46536;54.376;19.858;2022-12-20T06:38:06;101638.80;;;3.24;77.96
60697;BME280;46536;54.376;19.858;2022-12-20T06:40:36;101639.33;;;3.26;77.93
60697;BME280;46536;54.376;19.858;2022-12-20T06:43:05;101647.06;;;3.28;77.99
60697;BME280;46536;54.376;19.858;2022-12-20T06:45:34;101647.41;;;3.30;77.99
60697;BME280;46536;54.376;19.858;2022-12-20T06:48:10;101649.67;;;3.31;77.95
60697;BME280;46536;54.376;19.858;2022-12-20T06:50:40;101651.93;;;3.32;77.86
60697;BME280;46536;54.376;19.858;2022-12-20T06:53:10;101652.61;;;3.33;77.80
60697;BME280;46536;54.376;19.858;2022-12-20T06:55:38;101649.52;;;3.34;77.76
60697;BME280;46536;54.376;19.858;2022-12-20T06:58:08;101652.80;;;3.35;77.86
60697;BME280;46536;54.376;19.858;2022-12-20T07:00:38;101651.27;;;3.36;77.85
60697;BME280;46536;54.376;19.858;2022-12-20T07:03:07;101651.77;;;3.36;77.68
60697;BME280;46536;54.376;19.858;2022-12-20T07:05:36;101649.20;;;3.36;77.58
60697;BME280;46536;54.376;19.858;2022-12-20T07:08:06;101652.11;;;3.35;77.65
60697;BME280;46536;54.376;19.858;2022-12-20T07:10:36;101656.23;;;3.34;77.75
60697;BME280;46536;54.376;19.858;2022-12-20T07:13:05;101655.55;;;3.35;77.65
60697;BME280;46536;54.376;19.858;2022-12-20T07:15:34;101654.70;;;3.37;77.78
60697;BME280;46536;54.376;19.858;2022-12-20T07:18:03;101655.39;;;3.38;77.71
60697;BME280;46536;54.376;19.858;2022-12-20T07:20:32;101656.95;;;3.40;77.69
60697;BME280;46536;54.376;19.858;2022-12-20T07:23:01;101658.34;;;3.43;77.62
60697;BME280;46536;54.376;19.858;2022-12-20T07:25:30;101660.23;;;3.44;77.60
60697;BME280;46536;54.376;19.858;2022-12-20T07:27:59;101662.14;;;3.45;77.37
60697;BME280;46536;54.376;19.858;2022-12-20T07:30:28;101659.95;;;3.47;77.40
60697;BME280;46536;54.376;19.858;2022-12-20T07:32:56;101661.17;;;3.51;77.39
60697;BME280;46536;54.376;19.858;2022-12-20T07:35:25;101660.85;;;3.55;77.27
60697;BME280;46536;54.376;19.858;2022-12-20T07:37:54;101660.34;;;3.55;76.95
60697;BME280;46536;54.376;19.858;2022-12-20T07:40:22;101661.88;;;3.54;77.03
60697;BME280;46536;54.376;19.858;2022-12-20T07:42:51;101664.13;;;3.57;76.92
60697;BME280;46536;54.376;19.858;2022-12-20T07:45:20;101662.94;;;3.58;76.94
60697;BME280;46536;54.376;19.858;2022-12-20T07:47:49;101660.19;;;3.59;76.72
60697;BME280;46536;54.376;19.858;2022-12-20T07:50:17;101664.83;;;3.59;76.62
60697;BME280;46536;54.376;19.858;2022-12-20T07:52:47;101667.92;;;3.61;76.60
60697;BME280;46536;54.376;19.858;2022-12-20T07:55:17;101672.58;;;3.61;76.50
60697;BME280;46536;54.376;19.858;2022-12-20T07:57:50;101673.08;;;3.61;76.56
60697;BME280;46536;54.376;19.858;2022-12-20T08:00:20;101670.35;;;3.63;76.50
60697;BME280;46536;54.376;19.858;2022-12-20T08:03:22;101671.77;;;3.65;76.48
60697;BME280;46536;54.376;19.858;2022-12-20T08:05:55;101676.89;;;3.65;76.40
60697;BME280;46536;54.376;19.858;2022-12-20T08:08:25;101681.73;;;3.66;76.58
60697;BME280;46536;54.376;19.858;2022-12-20T08:10:54;101685.00;;;3.67;76.28
60697;BME280;46536;54.376;19.858;2022-12-20T08:13:23;101681.55;;;3.66;76.13
60697;BME280;46536;54.376;19.858;2022-12-20T08:15:51;101678.63;;;3.65;76.19
60697;BME280;46536;54.376;19.858;2022-12-20T08:18:20;101684.25;;;3.62;76.19
60697;BME280;46536;54.376;19.858;2022-12-20T08:20:48;101679.45;;;3.63;76.25
60697;BME280;46536;54.376;19.858;2022-12-20T08:23:17;101680.88;;;3.67;76.22
60697;BME280;46536;54.376;19.858;2022-12-20T08:25:46;101680.20;;;3.70;76.24
60697;BME280;46536;54.376;19.858;2022-12-20T08:28:15;101676.77;;;3.72;76.13
60697;BME280;46536;54.376;19.858;2022-12-20T08:30:43;101676.63;;;3.76;76.16
60697;BME280;46536;54.376;19.858;2022-12-20T08:33:12;101681.84;;;3.82;76.11
60697;BME280;46536;54.376;19.858;2022-12-20T08:35:40;101677.73;;;3.85;75.94
60697;BME280;46536;54.376;19.858;2022-12-20T08:38:09;101676.20;;;3.88;75.84
60697;BME280;46536;54.376;19.858;2022-12-20T08:40:37;101675.69;;;3.89;75.79
60697;BME280;46536;54.376;19.858;2022-12-20T08:43:06;101668.14;;;3.91;75.96
60697;BME280;46536;54.376;19.858;2022-12-20T08:45:37;101666.44;;;3.97;75.62
60697;BME280;46536;54.376;19.858;2022-12-20T08:48:06;101672.84;;;4.00;75.63
60697;BME280;46536;54.376;19.858;2022-12-20T08:50:34;101671.98;;;4.00;75.41
60697;BME280;46536;54.376;19.858;2022-12-20T08:53:03;101666.28;;;3.99;75.48
60697;BME280;46536;54.376;19.858;2022-12-20T08:55:32;101663.86;;;3.97;75.60
60697;BME280;46536;54.376;19.858;2022-12-20T08:58:00;101660.41;;;3.93;75.64
60697;BME280;46536;54.376;19.858;2022-12-20T09:00:29;101657.50;;;3.94;75.72
60697;BME280;46536;54.376;19.858;2022-12-20T09:02:57;101659.91;;;3.97;75.77
60697;BME280;46536;54.376;19.858;2022-12-20T09:05:26;101663.73;;;4.01;75.75
60697;BME280;46536;54.376;19.858;2022-12-20T09:07:55;101668.91;;;4.02;75.58
60697;BME280;46536;54.376;19.858;2022-12-20T09:10:23;101673.03;;;4.03;75.68
60697;BME280;46536;54.376;19.858;2022-12-20T09:12:52;101673.70;;;4.01;75.34
60697;BME280;46536;54.376;19.858;2022-12-20T09:15:21;101673.70;;;4.00;75.75
60697;BME280;46536;54.376;19.858;2022-12-20T09:17:50;101672.70;;;4.05;75.61
60697;BME280;46536;54.376;19.858;2022-12-20T09:20:18;101678.02;;;4.07;75.64
60697;BME280;46536;54.376;19.858;2022-12-20T09:22:47;101680.45;;;4.10;75.61
60697;BME280;46536;54.376;19.858;2022-12-20T09:25:15;101678.77;;;4.16;75.58
60697;BME280;46536;54.376;19.858;2022-12-20T09:27:44;101679.81;;;4.17;75.60
60697;BME280;46536;54.376;19.858;2022-12-20T09:30:13;101678.27;;;4.18;75.57
60697;BME280;46536;54.376;19.858;2022-12-20T09:32:41;101678.11;;;4.18;75.47
60697;BME280;46536;54.376;19.858;2022-12-20T09:35:10;101674.66;;;4.18;75.40
60697;BME280;46536;54.376;19.858;2022-12-20T09:37:38;101664.52;;;4.20;75.64
60697;BME280;46536;54.376;19.858;2022-12-20T09:40:17;101665.22;;;4.20;75.46
60697;BME280;46536;54.376;19.858;2022-12-20T09:42:47;101667.80;;;4.19;75.42
60697;BME280;46536;54.376;19.858;2022-12-20T09:45:28;101667.10;;;4.19;75.50
60697;BME280;46536;54.376;19.858;2022-12-20T09:47:58;101661.44;;;4.20;75.51
60697;BME280;46536;54.376;19.858;2022-12-20T09:50:42;101663.84;;;4.20;75.28
60697;BME280;46536;54.376;19.858;2022-12-20T09:53:27;101668.30;;;4.18;75.50
60697;BME280;46536;54.376;19.858;2022-12-20T09:56:09;101662.80;;;4.19;75.40
60697;BME280;46536;54.376;19.858;2022-12-20T09:58:55;101657.31;;;4.21;75.36
60697;BME280;46536;54.376;19.858;2022-12-20T10:01:26;101658.17;;;4.24;75.45
60697;BME280;46536;54.376;19.858;2022-12-20T10:15:43;101650.33;;;4.36;75.09
60697;BME280;46536;54.376;19.858;2022-12-20T10:18:43;101632.44;;;4.37;75.27
60697;BME280;46536;54.376;19.858;2022-12-20T10:21:41;101630.22;;;4.44;75.30
60697;BME280;46536;54.376;19.858;2022-12-20T10:24:19;101630.91;;;4.46;74.94
60697;BME280;46536;54.376;19.858;2022-12-20T10:26:50;101627.64;;;4.48;74.83
60697;BME280;46536;54.376;19.858;2022-12-20T10:29:19;101623.52;;;4.48;74.77
60697;BME280;46536;54.376;19.858;2022-12-20T10:31:52;101617.50;;;4.49;74.74
60697;BME280;46536;54.376;19.858;2022-12-20T10:34:22;101616.83;;;4.51;74.68
60697;BME280;46536;54.376;19.858;2022-12-20T10:37:10;101624.42;;;4.55;74.85
60697;BME280;46536;54.376;19.858;2022-12-20T10:39:45;101621.16;;;4.61;74.58
60697;BME280;46536;54.376;19.858;2022-12-20T10:42:37;101618.91;;;4.65;74.27
60697;BME280;46536;54.376;19.858;2022-12-20T10:45:36;101613.92;;;4.67;74.02
60697;BME280;46536;54.376;19.858;2022-12-20T10:56:27;101624.41;;;4.53;73.76
60697;BME280;46536;54.376;19.858;2022-12-20T10:59:23;101626.45;;;4.50;73.63
60697;BME280;46536;54.376;19.858;2022-12-20T11:01:49;101617.84;;;4.48;73.82
60697;BME280;46536;54.376;19.858;2022-12-20T11:04:33;101613.20;;;4.49;73.87
60697;BME280;46536;54.376;19.858;2022-12-20T11:07:24;101619.20;;;4.45;73.82
60697;BME280;46536;54.376;19.858;2022-12-20T11:09:59;101619.04;;;4.44;73.85
60697;BME280;46536;54.376;19.858;2022-12-20T11:12:28;101612.33;;;4.44;73.79
60697;BME280;46536;54.376;19.858;2022-12-20T11:15:19;101602.19;;;4.47;73.73
60697;BME280;46536;54.376;19.858;2022-12-20T11:18:07;101596.19;;;4.51;73.94
60697;BME280;46536;54.376;19.858;2022-12-20T11:23:57;101584.50;;;4.61;73.48
60697;BME280;46536;54.376;19.858;2022-12-20T11:44:54;101596.38;;;4.63;73.72
60697;BME280;46536;54.376;19.858;2022-12-20T11:50:55;101587.95;;;4.66;73.83
60697;BME280;46536;54.376;19.858;2022-12-20T11:56:11;101586.05;;;4.65;73.59
60697;BME280;46536;54.376;19.858;2022-12-20T12:01:23;101589.50;;;4.61;73.64
60697;BME280;46536;54.376;19.858;2022-12-20T12:04:02;101593.79;;;4.60;73.61
60697;BME280;46536;54.376;19.858;2022-12-20T12:06:40;101595.34;;;4.58;73.69
60697;BME280;46536;54.376;19.858;2022-12-20T12:09:29;101600.67;;;4.57;73.70
60697;BME280;46536;54.376;19.858;2022-12-20T12:12:11;101601.54;;;4.55;73.72
60697;BME280;46536;54.376;19.858;2022-12-20T12:18:05;101602.22;;;4.53;73.84
60697;BME280;46536;54.376;19.858;2022-12-20T12:28:53;101600.81;;;4.50;73.77
60697;BME280;46536;54.376;19.858;2022-12-20T12:31:31;101594.83;;;4.52;73.74
60697;BME280;46536;54.376;19.858;2022-12-20T12:39:59;101585.69;;;4.51;73.73
60697;BME280;46536;54.376;19.858;2022-12-20T12:48:26;101580.72;;;4.56;73.71
60697;BME280;46536;54.376;19.858;2022-12-20T12:50:59;101582.27;;;4.57;73.63
60697;BME280;46536;54.376;19.858;2022-12-20T12:53:47;101582.95;;;4.58;73.71
60697;BME280;46536;54.376;19.858;2022-12-20T13:13:00;101577.96;;;4.52;73.40
60697;BME280;46536;54.376;19.858;2022-12-20T13:18:16;101569.50;;;4.49;73.48
60697;BME280;46536;54.376;19.858;2022-12-20T13:24:27;101575.87;;;4.49;73.40
60697;BME280;46536;54.376;19.858;2022-12-20T13:27:02;101581.03;;;4.48;73.48
60697;BME280;46536;54.376;19.858;2022-12-20T13:29:34;101569.15;;;4.47;73.57
60697;BME280;46536;54.376;19.858;2022-12-20T13:38:34;101567.95;;;4.41;73.77
60697;BME280;46536;54.376;19.858;2022-12-20T13:40:59;101560.73;;;4.39;73.85
60697;BME280;46536;54.376;19.858;2022-12-20T13:43:35;101571.04;;;4.36;73.84
60697;BME280;46536;54.376;19.858;2022-12-20T13:46:18;101577.39;;;4.34;73.90
60697;BME280;46536;54.376;19.858;2022-12-20T13:49:58;101581.50;;;4.32;74.18
60697;BME280;46536;54.376;19.858;2022-12-20T13:52:15;101580.98;;;4.31;74.26
60697;BME280;46536;54.376;19.858;2022-12-20T13:54:51;101576.67;;;4.28;74.33
60697;BME280;46536;54.376;19.858;2022-12-20T13:57:40;101581.83;;;4.27;74.21
60697;BME280;46536;54.376;19.858;2022-12-20T14:00:17;101582.34;;;4.23;74.31
60697;BME280;46536;54.376;19.858;2022-12-20T14:02:49;101582.86;;;4.24;74.34
60697;BME280;46536;54.376;19.858;2022-12-20T14:05:24;101585.44;;;4.22;74.48
60697;BME280;46536;54.376;19.858;2022-12-20T14:08:11;101573.05;;;4.21;74.64
60697;BME280;46536;54.376;19.858;2022-12-20T14:10:44;101565.84;;;4.23;74.75
60697;BME280;46536;54.376;19.858;2022-12-20T14:13:25;101562.91;;;4.21;74.67
60697;BME280;46536;54.376;19.858;2022-12-20T14:16:16;101566.35;;;4.21;74.84
60697;BME280;46536;54.376;19.858;2022-12-20T14:19:03;101562.91;;;4.21;74.75
60697;BME280;46536;54.376;19.858;2022-12-20T14:21:39;101561.36;;;4.19;74.87
60697;BME280;46536;54.376;19.858;2022-12-20T14:24:19;101553.97;;;4.20;75.06
60697;BME280;46536;54.376;19.858;2022-12-20T14:26:53;101560.33;;;4.23;74.82
60697;BME280;46536;54.376;19.858;2022-12-20T14:29:29;101555.17;;;4.23;74.78
60697;BME280;46536;54.376;19.858;2022-12-20T14:32:03;101555.52;;;4.22;74.82
60697;BME280;46536;54.376;19.858;2022-12-20T14:34:36;101562.57;;;4.22;74.75
60697;BME280;46536;54.376;19.858;2022-12-20T14:37:33;101558.27;;;4.22;74.99
60697;BME280;46536;54.376;19.858;2022-12-20T14:40:24;101551.39;;;4.22;74.94
60697;BME280;46536;54.376;19.858;2022-12-20T14:42:58;101555.52;;;4.21;74.86
60697;BME280;46536;54.376;19.858;2022-12-20T14:45:47;101548.80;;;4.20;74.80
60697;BME280;46536;54.376;19.858;2022-12-20T14:48:20;101552.77;;;4.19;74.84
60697;BME280;46536;54.376;19.858;2022-12-20T14:50:53;101548.81;;;4.18;74.86
60697;BME280;46536;54.376;19.858;2022-12-20T15:01:34;101556.71;;;4.19;75.17
60697;BME280;46536;54.376;19.858;2022-12-20T15:04:43;101554.31;;;4.18;75.04
60697;BME280;46536;54.376;19.858;2022-12-20T15:07:29;101549.11;;;4.15;74.96
60697;BME280;46536;54.376;19.858;2022-12-20T15:09:59;101547.05;;;4.11;75.07
60697;BME280;46536;54.376;19.858;2022-12-20T15:12:28;101534.84;;;4.10;75.25
60697;BME280;46536;54.376;19.858;2022-12-20T15:14:57;101536.04;;;4.07;75.20
60697;BME280;46536;54.376;19.858;2022-12-20T15:17:47;101527.60;;;4.06;75.31
60697;BME280;46536;54.376;19.858;2022-12-20T15:20:19;101539.30;;;4.03;75.37
60697;BME280;46536;54.376;19.858;2022-12-20T15:22:48;101540.33;;;4.02;75.33
60697;BME280;46536;54.376;19.858;2022-12-20T15:25:17;101532.77;;;4.05;75.25
60697;BME280;46536;54.376;19.858;2022-12-20T15:27:46;101525.04;;;4.08;75.22
60697;BME280;46536;54.376;19.858;2022-12-20T15:30:15;101522.80;;;4.08;75.06
60697;BME280;46536;54.376;19.858;2022-12-20T15:32:44;101515.92;;;4.08;75.01
60697;BME280;46536;54.376;19.858;2022-12-20T15:35:22;101509.39;;;4.06;75.13
60697;BME280;46536;54.376;19.858;2022-12-20T15:37:52;101503.03;;;4.05;75.15
60697;BME280;46536;54.376;19.858;2022-12-20T15:40:20;101502.00;;;4.05;75.10